Selected Arizona METAR Reports


Metar stations are listed by distance from this station - near to far. The 'official' reporting station for the Greater Phoenix area is KPHX - Phoenix/Sky Harbor.

KDVT - Phoenix/Deer Valley, Arizona, USA
Distance from station: NW 4mi, 7km
Updated: Tue 25 Jan 2022 1453 MST
Clear
Clear
 Wind from S
Wind: S 12 mph , 19 km/h
Temperature: 64°F , 18°C
Dew Point: 28°F , -2°C
Humidity: 26%
Barometer: 29.90 inHg , 1012.5 hPa
Clouds: Clear
Visibility: 10 miles , 16 km
2022/01/25 21:53 KDVT 252153Z 19010KT 10SM CLR 18/M02 A2990 RMK AO2 SLP115 T01831022
KSDL - Scottsdale, Arizona, USA
Distance from station: ESE 6mi, 9km
Updated: Tue 25 Jan 2022 1453 MST
Clear
Clear
 Wind from S
Wind: S 6 mph , 9 km/h
Temperature: 66°F , 19°C
Dew Point: 28°F , -2°C
Humidity: 24%
Barometer: 29.91 inHg , 1012.9 hPa
Clouds: Clear
Visibility: 10 miles , 16 km
2022/01/25 21:53 KSDL 252153Z 19005KT 10SM CLR 19/M02 A2991 RMK AO2 SLP118 T01891022
 
KPHX - Phoenix/Sky Harbor, Arizona, USA
Distance from station: S 15mi, 24km
Updated: Tue 25 Jan 2022 1451 MST
Few Clouds
Few Clouds
 Wind from SW
Wind: SW 9 mph , 15 km/h
Temperature: 70°F , 21°C
Dew Point: 28°F , -2°C
Humidity: 21%
Barometer: 29.89 inHg , 1012.2 hPa
Clouds: Few Clouds
Visibility: 10 miles , 16 km
Cloud details: Few Clouds 22000 ft
Few Clouds 25000 ft
2022/01/25 21:51 KPHX 252151Z 23008KT 10SM FEW220 FEW250 21/M02 A2989 RMK AO2 SLP114 T02061022
KGEU - Glendale, Arizona, USA
Distance from station: WSW 19mi, 30km
Updated: Tue 25 Jan 2022 1459 MST
Clear
Clear
 Wind from S
Wind: S 9 mph , 15 km/h
Temperature: 66°F , 19°C
Dew Point: 27°F , -3°C
Humidity: 22%
Barometer: 29.90 inHg , 1012.5 hPa
Clouds: Clear
Visibility: 10 miles , 16 km
2022/01/25 21:59 KGEU 252159Z 18008KT 10SM SKC 19/M03 A2990
 
KFFZ - Mesa/Falcon Field, Arizona, USA
Distance from station: SE 21mi, 33km
Updated: Tue 25 Jan 2022 1454 MST
Clear
Clear
 Wind from S
Wind: S 5 mph , 7 km/h
Temperature: 66°F , 19°C
Dew Point: 28°F , -2°C
Humidity: 24%
Barometer: 29.90 inHg , 1012.5 hPa
Clouds: Clear
Visibility: 10 miles , 16 km
2022/01/25 21:54 KFFZ 252154Z 18004KT 10SM CLR 19/M02 A2990 RMK AO2 SLP114 T01891022 $
KLUF - Luke AFB/Glendale, Arizona, USA
Distance from station: WSW 23mi, 36km
Updated: Tue 25 Jan 2022 1458 MST
Clear
Clear
 Wind from SSW
Wind: SSW 8 mph , 13 km/h
Temperature: 68°F , 20°C
Dew Point: 27°F , -3°C
Humidity: 21%
Barometer: 29.89 inHg , 1012.2 hPa
Clouds: Clear
Visibility: 10 miles , 16 km
2022/01/25 21:58 KLUF 252158Z AUTO 20007KT 10SM CLR 20/M03 A2989 RMK AO2 SLP119 T01961027 $
 
KGYR - Goodyear Municipal, Arizona, USA
Distance from station: SW 26mi, 42km
Updated: Tue 25 Jan 2022 1447 MST
Few Clouds
Few Clouds
 Wind from S
Wind: S 6 mph , 9 km/h
Temperature: 66°F , 19°C
Dew Point: 32°F , 0°C
Humidity: 28%
Barometer: 29.91 inHg , 1012.9 hPa
Clouds: Few Clouds
Visibility: 10 miles , 16 km
Cloud details: Few Clouds 25000 ft
2022/01/25 21:47 KGYR 252147Z 17005KT 10SM FEW250 19/00 A2991
KIWA - Chandler/Mesa, Arizona, USA
Distance from station: SE 32mi, 51km
Updated: Tue 25 Jan 2022 1450 MST
Few Clouds
Few Clouds
 Wind from W
Wind: W 7 mph , 11 km/h
Temperature: 66°F , 19°C
Dew Point: 27°F , -3°C
Humidity: 22%
Barometer: 29.93 inHg , 1013.5 hPa
Clouds: Few Clouds
Visibility: 10 miles , 16 km
Cloud details: Few Clouds 25000 ft
2022/01/25 21:50 KIWA 252150Z 26006KT 10SM FEW250 19/M03 A2993
 
KBXK - Buckeye, Arizona, USA
Distance from station: WSW 42mi, 68km
Updated: Tue 25 Jan 2022 1455 MST

 Wind from SSW
Wind: SSW 6 mph , 9 km/h
Temperature: 66°F , 19°C
Dew Point: 30°F , -1°C
Humidity: 26%
Barometer: 29.92 inHg , 1013.2 hPa
Visibility: 10 miles , 16 km
2022/01/25 21:55 KBXK 252155Z AUTO 21005KT 10SM 19/M01 A2992 RMK A01
KCGZ - Casa Grande, Arizona, USA
Distance from station: SSE 50mi, 81km
Updated: Tue 25 Jan 2022 1456 MST
Clear
Clear
 Wind from W
Wind: W 10 mph , 17 km/h
Temperature: 66°F , 19°C
Dew Point: 25°F , -4°C
Humidity: 21%
Barometer: 29.93 inHg , 1013.5 hPa
Clouds: Clear
Visibility: 10 miles , 16 km
2022/01/25 21:56 KCGZ 252156Z AUTO 28009KT 10SM CLR 19/M04 A2993 RMK AO2 SLP132 T01941044
 
KPAN - Payson, Arizona, USA
Distance from station: NE 57mi, 91km
Updated: Tue 25 Jan 2022 1455 MST
Clear
Clear
 Wind from SW
Wind: SW 8 mph , 13 km/h, Gust: 16 mph , 26 km/h
Temperature: 50°F , 10°C
Wind Chill: 47°F , 8°C
Dew Point: 25°F , -4°C
Humidity: 37%
Barometer: 29.96 inHg , 1014.6 hPa
Clouds: Clear
Visibility: 10 miles , 16 km
2022/01/25 21:55 KPAN 252155Z AUTO 22007G14KT 10SM CLR 10/M04 A2996 RMK AO2
KGBN - Gila Bend (aaf), Arizona, USA
Distance from station: SW 68mi, 109km
Updated: Wed 04 Dec 2019 0855 MST
NOT Current
Mostly cloudy
Mostly cloudy
 Wind from calm
Wind: Calm
Temperature: 55°F , 13°C
Dew Point: 54°F , 12°C
Humidity: 94%
Barometer: 30.02 inHg , 1016.6 hPa
Clouds: Mostly cloudy
Visibility: 10 miles , 16 km
Cloud details: Mostly cloudy 10000 ft
Mostly cloudy 14000 ft
2019/12/04 15:55 KGBN 041555Z 00000KT 10SM BKN100 BKN140 13/12 A3002 RMK AO2A SLP162
 
KPRC - Prescott, Arizona, USA
Distance from station: NNW 73mi, 118km
Updated: Tue 25 Jan 2022 1453 MST
Clear
Clear
 Wind from W
Wind: W 14 mph , 22 km/h, Gust: 20 mph , 31 km/h
Temperature: 52°F , 11°C
Dew Point: 19°F , -7°C
Humidity: 28%
Barometer: 29.93 inHg , 1013.5 hPa
Clouds: Clear
Visibility: 10 miles , 16 km
2022/01/25 21:53 KPRC 252153Z 26012G17KT 10SM CLR 11/M07 A2993 RMK AO2 SLP112 T01111072
KSEZ - Sedona, Arizona, USA
Distance from station: N 84mi, 135km
Updated: Tue 25 Jan 2022 1455 MST
Partly cloudy
Partly cloudy
 Wind from S
Wind: S 8 mph , 13 km/h
Temperature: 57°F , 14°C
Dew Point: 28°F , -2°C
Humidity: 33%
Barometer: 29.93 inHg , 1013.5 hPa
Clouds: Partly cloudy
Visibility: 10 miles , 16 km
Cloud details: Partly cloudy 8000 ft
2022/01/25 21:55 KSEZ 252155Z AUTO 17007KT 140V220 10SM SCT080 14/M02 A2993 RMK AO2
 
KFLG - Flagstaff, Arizona, USA
Distance from station: N 105mi, 168km
Updated: Tue 25 Jan 2022 1457 MST
Partly cloudy
Partly cloudy
 Wind from WSW
Wind: WSW 14 mph , 22 km/h
Temperature: 39°F , 4°C
Wind Chill: 31°F , -1°C
Dew Point: 21°F , -6°C
Humidity: 48%
Barometer: 29.92 inHg , 1013.2 hPa
Clouds: Partly cloudy
Visibility: 10 miles , 16 km
Cloud details: Partly cloudy 5500 ft
Partly cloudy 7000 ft
2022/01/25 21:57 KFLG 252157Z 25012KT 10SM SCT055 SCT070 04/M06 A2992 RMK AO2 SLP119 T00441061
KRYN - Tucson/Ryan Field, Arizona, USA
Distance from station: SSE 114mi, 184km
Updated: Tue 25 Jan 2022 1445 MST
Clear
Clear
 Wind from W
Wind: W 9 mph , 15 km/h, Gust: 18 mph , 30 km/h
Temperature: 68°F , 20°C
Dew Point: 18°F , -8°C
Humidity: 14%
Barometer: 29.91 inHg , 1012.9 hPa
Clouds: Clear
Visibility: 10 miles , 16 km
2022/01/25 21:45 KRYN 252145Z 27008G16KT 10SM CLR 20/M08 A2991
 
KCMR - Williams Clark, Arizona, USA
Distance from station: N 115mi, 185km
Updated: Tue 25 Jan 2022 1455 MST
Overcast
Overcast
 Wind from varies
Wind: varies 3 mph , 6 km/h, Gust: 12 mph , 19 km/h
Temperature: 43°F , 6°C
Dew Point: 16°F , -9°C
Humidity: 34%
Barometer: 29.94 inHg , 1013.9 hPa
Clouds: Overcast
Visibility: 10 miles , 16 km
Cloud details: Overcast 6500 ft
2022/01/25 21:55 KCMR 252155Z AUTO VRB03G10KT 10SM OVC065 06/M09 A2994 RMK AO2
KINW - Winslow, Arizona, USA
Distance from station: NE 121mi, 194km
Updated: Tue 25 Jan 2022 1456 MST
Clear
Clear
 Wind from W
Wind: W 22 mph , 35 km/h, Gust: 28 mph , 44 km/h
Temperature: 57°F , 14°C
Dew Point: 18°F , -8°C
Humidity: 21%
Barometer: 29.88 inHg , 1011.9 hPa
Clouds: Clear
Visibility: 10 miles , 16 km
2022/01/25 21:56 KINW 252156Z AUTO 26019G24KT 10SM CLR 14/M08 A2988 RMK AO2 SLP108 T01391078
 
KTUS - Tucson, Arizona, USA
Distance from station: SSE 121mi, 195km
Updated: Tue 25 Jan 2022 1453 MST
Clear
Clear
 Wind from NNW
Wind: NNW 9 mph , 15 km/h
Temperature: 70°F , 21°C
Dew Point: 19°F , -7°C
Humidity: 15%
Barometer: 29.93 inHg , 1013.5 hPa
Clouds: Clear
Visibility: 10 miles , 16 km
2022/01/25 21:53 KTUS 252153Z 33008KT 10SM CLR 21/M07 A2993 RMK AO2 SLP115 T02061067
KDMA - Davis AFB/Tucson, Arizona, USA
Distance from station: SE 122mi, 196km
Updated: Tue 25 Jan 2022 1458 MST
Clear
Clear
 Wind from W
Wind: W 13 mph , 20 km/h, Gust: 18 mph , 30 km/h
Temperature: 68°F , 20°C
Dew Point: 21°F , -6°C
Humidity: 17%
Barometer: 29.91 inHg , 1012.9 hPa
Clouds: Clear
Visibility: 10 miles , 16 km
2022/01/25 21:58 KDMA 252158Z AUTO 28011G16KT 10SM CLR 20/M06 A2991 RMK AO2 SLP111 T01971061
 
KSOW - Show Low Municipal, Arizona, USA
Distance from station: ENE 123mi, 198km
Updated: Tue 25 Jan 2022 1455 MST
Clear
Clear
 Wind from SSW
Wind: SSW 16 mph , 26 km/h, Gust: 24 mph , 39 km/h
Temperature: 50°F , 10°C
Wind Chill: 44°F , 7°C
Dew Point: 16°F , -9°C
Humidity: 25%
Barometer: 29.94 inHg , 1013.9 hPa
Clouds: Clear
Visibility: 10 miles , 16 km
2022/01/25 21:55 KSOW 252155Z AUTO 21014G21KT 10SM CLR 10/M09 A2994 RMK AO2
KSAD - Safford, Arizona, USA
Distance from station: ESE 148mi, 238km
Updated: Tue 25 Jan 2022 1451 MST
Clear
Clear
 Wind from calm
Wind: Calm
Temperature: 63°F , 17°C
Dew Point: 27°F , -3°C
Humidity: 25%
Barometer: 29.90 inHg , 1012.5 hPa
Clouds: Clear
Visibility: 10 miles , 16 km
2022/01/25 21:51 KSAD 252151Z AUTO 00000KT 10SM CLR 17/M03 A2990 RMK AO2 SLP107 T01721033